createdAt,value
2022-11-22T00:00:42.756Z,0.64
2022-11-22T00:04:00.618Z,0.47
2022-11-22T00:07:17.519Z,0.46
2022-11-22T00:10:34.886Z,0.39
2022-11-22T00:13:51.164Z,0.45
2022-11-22T00:17:08.131Z,0.43
2022-11-22T00:20:25.053Z,0.25
2022-11-22T00:23:42.236Z,0.24
2022-11-22T00:26:59.068Z,0.14
2022-11-22T00:30:17.630Z,0.08
2022-11-22T00:33:34.473Z,0.05
2022-11-22T00:36:50.894Z,0.05
2022-11-22T00:40:08.333Z,0.12
2022-11-22T00:43:25.703Z,0.06
2022-11-22T00:46:42.456Z,0.01
2022-11-22T00:49:59.118Z,-0.03
2022-11-22T00:53:15.753Z,-0.06
2022-11-22T00:56:32.854Z,-0.13
2022-11-22T00:59:49.447Z,-0.11
2022-11-22T01:03:05.809Z,-0.04
2022-11-22T01:06:22.130Z,-0.13
2022-11-22T01:09:39.014Z,-0.18
2022-11-22T01:12:55.304Z,-0.19
2022-11-22T01:16:15.430Z,-0.36
2022-11-22T01:19:32.016Z,-0.33
2022-11-22T01:22:48.953Z,-0.28
2022-11-22T01:26:05.763Z,-0.31
2022-11-22T01:29:22.008Z,-0.35
2022-11-22T01:32:38.402Z,-0.36
2022-11-22T01:35:55.267Z,-0.37
2022-11-22T01:39:11.859Z,-0.43
2022-11-22T01:42:28.549Z,-0.49
2022-11-22T01:45:57.767Z,-0.42
2022-11-22T01:49:18.730Z,-0.49
2022-11-22T01:52:38.083Z,-0.52
2022-11-22T01:55:55.769Z,-0.50
2022-11-22T01:59:17.146Z,-0.52
2022-11-22T02:02:34.045Z,-0.56
2022-11-22T02:05:51.825Z,-0.67
2022-11-22T02:09:13.419Z,-0.66
2022-11-22T02:12:34.624Z,-0.54
2022-11-22T02:15:51.764Z,-0.56
2022-11-22T02:19:08.590Z,-0.61
2022-11-22T02:22:37.109Z,-0.61
2022-11-22T02:26:03.315Z,-0.64
2022-11-22T02:29:20.288Z,-0.48
2022-11-22T02:32:37.192Z,-0.28
2022-11-22T02:35:54.908Z,-0.14
2022-11-22T02:39:12.652Z,-0.22
2022-11-22T02:42:29.773Z,-0.31
2022-11-22T02:45:46.577Z,-0.14
2022-11-22T02:49:03.492Z,0.01
2022-11-22T02:52:23.056Z,0.09
2022-11-22T02:55:39.793Z,-0.12
2022-11-22T02:58:56.233Z,-0.52
2022-11-22T03:02:12.705Z,-0.57
2022-11-22T03:05:30.077Z,-0.53
2022-11-22T03:08:53.181Z,-0.51
2022-11-22T03:12:07.211Z,-0.48
2022-11-22T03:15:23.941Z,-0.56
2022-11-22T03:18:42.896Z,-0.71
2022-11-22T03:21:59.977Z,-0.74
2022-11-22T03:25:17.858Z,-0.80
2022-11-22T03:28:35.947Z,-0.73
2022-11-22T03:31:52.351Z,-0.62
2022-11-22T03:35:10.871Z,-0.56
2022-11-22T03:38:28.127Z,-0.53
2022-11-22T03:41:45.255Z,-0.59
2022-11-22T03:45:01.622Z,-0.66
2022-11-22T03:48:18.044Z,-0.74
2022-11-22T03:51:34.983Z,-0.72
2022-11-22T03:54:51.191Z,-0.74
2022-11-22T03:58:07.538Z,-0.85
2022-11-22T04:01:23.815Z,-1.05
2022-11-22T04:04:40.274Z,-1.11
2022-11-22T04:07:57.161Z,-1.19
2022-11-22T04:11:13.648Z,-1.23
2022-11-22T04:14:44.213Z,-1.24
2022-11-22T04:18:01.241Z,-1.25
2022-11-22T04:21:31.183Z,-1.23
2022-11-22T04:25:01.101Z,-1.15
2022-11-22T04:28:20.184Z,-1.08
2022-11-22T04:31:50.494Z,-1.06
2022-11-22T04:35:06.576Z,-1.13
2022-11-22T04:38:24.457Z,-1.16
2022-11-22T04:41:41.334Z,-1.26
2022-11-22T04:44:57.600Z,-1.41
2022-11-22T04:48:14.494Z,-1.43
2022-11-22T04:51:44.587Z,-1.57
2022-11-22T04:55:00.938Z,-1.60
2022-11-22T04:58:17.578Z,-1.67
2022-11-22T05:01:33.942Z,-1.67
2022-11-22T05:04:52.142Z,-1.74
2022-11-22T05:08:09.287Z,-1.81
2022-11-22T05:11:25.568Z,-1.85
2022-11-22T05:14:42.589Z,-1.81
2022-11-22T05:17:58.706Z,-1.75
2022-11-22T05:21:18.545Z,-1.73
2022-11-22T05:24:35.362Z,-1.74
2022-11-22T05:27:51.432Z,-1.78
2022-11-22T05:31:13.389Z,-1.81
2022-11-22T05:34:29.772Z,-1.91
2022-11-22T05:37:46.052Z,-2.08
2022-11-22T05:41:02.245Z,-2.01
2022-11-22T05:44:19.267Z,-1.96
2022-11-22T05:47:35.524Z,-1.93
2022-11-22T05:50:52.066Z,-1.93
2022-11-22T05:54:08.320Z,-1.82
2022-11-22T05:57:24.718Z,-1.83
2022-11-22T06:00:41.029Z,-1.69
2022-11-22T06:03:58.052Z,-1.76
2022-11-22T06:07:14.520Z,-1.63
2022-11-22T06:10:31.292Z,-1.54
2022-11-22T06:13:49.462Z,-1.47
2022-11-22T06:17:05.743Z,-1.49
2022-11-22T06:20:23.314Z,-1.40
2022-11-22T06:23:40.023Z,-1.37
2022-11-22T06:26:56.283Z,-1.48
2022-11-22T06:30:14.573Z,-1.43
2022-11-22T06:33:30.817Z,-1.41
2022-11-22T06:36:48.149Z,-1.43
2022-11-22T06:40:05.385Z,-1.37
2022-11-22T06:43:21.967Z,-1.38
2022-11-22T06:46:38.945Z,-1.40
2022-11-22T06:49:57.605Z,-1.37
2022-11-22T06:53:39.342Z,-1.39
2022-11-22T06:56:41.093Z,-1.58
2022-11-22T06:59:57.795Z,-1.55
2022-11-22T07:03:14.547Z,-1.55
2022-11-22T07:06:31.714Z,-1.58
2022-11-22T07:09:53.535Z,-1.65
2022-11-22T07:13:09.445Z,-1.51
2022-11-22T07:16:28.862Z,-1.36
2022-11-22T07:19:46.509Z,-1.40
2022-11-22T07:23:03.565Z,-1.38
2022-11-22T07:26:26.758Z,-1.64
2022-11-22T07:29:43.931Z,-1.52
2022-11-22T07:33:00.391Z,-1.43
2022-11-22T07:36:19.867Z,-1.33
2022-11-22T07:39:36.299Z,-1.16
2022-11-22T07:42:58.161Z,-1.08
2022-11-22T07:46:14.270Z,-1.05
2022-11-22T07:49:30.968Z,-0.99
2022-11-22T07:52:47.788Z,-0.94
2022-11-22T07:56:05.971Z,-0.88
2022-11-22T07:59:23.279Z,-0.80
2022-11-22T08:02:40.234Z,-0.80
2022-11-22T08:05:56.460Z,-0.77
2022-11-22T08:09:13.160Z,-0.73
2022-11-22T08:12:29.703Z,-0.67
2022-11-22T08:15:46.305Z,-0.60
2022-11-22T08:19:02.940Z,-0.57
2022-11-22T08:22:19.263Z,-0.53
2022-11-22T08:25:35.504Z,-0.47
2022-11-22T08:28:52.706Z,-0.44
2022-11-22T08:32:10.209Z,-0.38
2022-11-22T08:35:26.576Z,-0.32
2022-11-22T08:38:43.241Z,-0.35
2022-11-22T08:42:01.119Z,-0.30
2022-11-22T08:45:19.454Z,-0.24
2022-11-22T08:48:37.523Z,-0.22
2022-11-22T08:51:54.083Z,-0.15
2022-11-22T08:55:10.930Z,-0.06
2022-11-22T08:58:27.946Z,0.05
2022-11-22T09:01:44.173Z,0.14
2022-11-22T09:05:00.935Z,0.20
2022-11-22T09:08:24.540Z,0.26
2022-11-22T09:11:36.156Z,0.35
2022-11-22T09:14:52.694Z,0.53
2022-11-22T09:18:12.074Z,0.78
2022-11-22T09:21:26.924Z,0.91
2022-11-22T09:24:43.411Z,1.07
2022-11-22T09:28:01.227Z,1.10
2022-11-22T09:31:21.059Z,1.32
2022-11-22T09:34:37.275Z,1.60
2022-11-22T09:37:54.155Z,1.71
2022-11-22T09:41:18.912Z,1.92
2022-11-22T09:44:43.578Z,2.12
2022-11-22T09:48:09.935Z,2.33
2022-11-22T09:51:31.973Z,2.51
2022-11-22T09:54:54.412Z,2.67
2022-11-22T09:58:19.691Z,2.86
2022-11-22T10:01:42.112Z,3.03
2022-11-22T10:05:05.565Z,3.16
2022-11-22T10:08:31.789Z,3.23
2022-11-22T10:11:55.224Z,3.38
2022-11-22T10:15:17.456Z,3.41
2022-11-22T10:18:40.421Z,3.51
2022-11-22T10:21:56.877Z,3.66
2022-11-22T10:25:21.987Z,3.81
2022-11-22T10:28:45.307Z,3.87
2022-11-22T10:32:09.015Z,3.98
2022-11-22T10:35:40.756Z,4.04
2022-11-22T10:39:21.049Z,4.14
2022-11-22T10:42:55.796Z,4.24
2022-11-22T10:46:19.462Z,4.36
2022-11-22T10:49:45.913Z,4.45
2022-11-22T10:53:12.592Z,4.52
2022-11-22T10:56:38.548Z,4.59
2022-11-22T11:00:10.649Z,4.65
2022-11-22T11:03:37.525Z,4.72
2022-11-22T11:07:12.084Z,4.86
2022-11-22T11:10:34.039Z,4.90
2022-11-22T11:13:50.130Z,4.98
2022-11-22T11:17:07.814Z,4.97
2022-11-22T11:20:31.874Z,4.90
2022-11-22T11:23:49.252Z,4.91
2022-11-22T11:27:08.189Z,4.92
2022-11-22T11:30:27.278Z,4.91
2022-11-22T11:33:47.244Z,4.91
2022-11-22T11:37:06.241Z,4.89
2022-11-22T11:40:38.388Z,4.91
2022-11-22T11:43:55.952Z,4.96
2022-11-22T11:47:15.433Z,5.01
2022-11-22T11:50:35.544Z,5.08
2022-11-22T11:54:05.381Z,5.04
2022-11-22T11:57:25.210Z,5.04
2022-11-22T12:00:48.365Z,5.02
2022-11-22T12:04:12.470Z,5.04
2022-11-22T12:07:32.988Z,5.06
2022-11-22T12:10:55.797Z,5.10
2022-11-22T12:14:37.600Z,5.12
2022-11-22T12:17:41.062Z,5.13
2022-11-22T12:21:03.409Z,5.19
2022-11-22T12:27:43.941Z,5.28
2022-11-22T12:31:08.220Z,5.33
2022-11-22T12:34:29.735Z,5.38
2022-11-22T12:37:50.797Z,5.41
2022-11-22T12:41:13.273Z,5.46
2022-11-22T12:44:32.582Z,5.50
2022-11-22T12:47:52.395Z,5.54
2022-11-22T12:51:15.604Z,5.57
2022-11-22T12:54:38.260Z,5.60
2022-11-22T12:58:00.813Z,5.59
2022-11-22T13:01:26.009Z,5.58
2022-11-22T13:04:50.046Z,5.58
2022-11-22T13:08:13.864Z,5.57
2022-11-22T13:11:35.552Z,5.59
2022-11-22T13:14:56.674Z,5.60
2022-11-22T13:18:18.200Z,5.61
2022-11-22T13:21:57.633Z,5.61
2022-11-22T13:25:30.253Z,5.62
2022-11-22T13:28:52.764Z,5.64
2022-11-22T13:32:30.705Z,5.64
2022-11-22T13:35:51.497Z,5.63
2022-11-22T13:39:20.101Z,5.64
2022-11-22T13:42:39.573Z,5.64
2022-11-22T13:46:02.660Z,5.63
2022-11-22T13:49:38.237Z,5.63
2022-11-22T13:53:06.178Z,5.59
2022-11-22T13:57:02.371Z,5.58
2022-11-22T14:00:53.754Z,5.53
2022-11-22T14:04:48.069Z,5.49
2022-11-22T14:08:08.818Z,5.41
2022-11-22T14:11:40.878Z,5.33
2022-11-22T14:15:35.668Z,5.25
2022-11-22T14:19:12.948Z,5.20
2022-11-22T14:22:37.533Z,5.12
2022-11-22T14:26:15.468Z,5.05
2022-11-22T14:30:14.746Z,4.95
2022-11-22T14:33:33.999Z,4.86
2022-11-22T14:36:50.814Z,4.80
2022-11-22T14:40:50.740Z,4.74
2022-11-22T14:44:13.129Z,4.72
2022-11-22T14:47:30.172Z,4.66
2022-11-22T14:50:56.653Z,4.62
2022-11-22T14:54:22.150Z,4.57
2022-11-22T14:57:42.499Z,4.53
2022-11-22T15:01:20.869Z,4.48
2022-11-22T15:09:11.961Z,4.44
2022-11-22T15:09:19.462Z,4.46
2022-11-22T15:12:08.886Z,4.42
2022-11-22T15:59:35.411Z,2.49
2022-11-22T16:02:56.731Z,2.37
2022-11-22T16:06:19.337Z,2.49
2022-11-22T16:09:41.576Z,2.74
2022-11-22T16:13:00.556Z,2.92
2022-11-22T16:16:34.114Z,3.05
2022-11-22T16:19:53.307Z,2.84
2022-11-22T16:23:27.754Z,2.66
2022-11-22T16:26:45.274Z,2.45
2022-11-22T16:30:02.736Z,2.33
2022-11-22T16:33:21.000Z,2.37
2022-11-22T16:36:40.071Z,2.46
2022-11-22T16:39:58.631Z,2.26
2022-11-22T16:43:24.247Z,2.19
2022-11-22T16:46:40.712Z,2.16
2022-11-22T16:49:59.047Z,2.24
2022-11-22T16:53:22.929Z,2.43
2022-11-22T16:56:42.275Z,2.54
2022-11-22T16:59:57.372Z,2.62
2022-11-22T17:03:18.957Z,2.64
2022-11-22T17:06:39.902Z,2.66
2022-11-22T17:09:57.223Z,2.68
2022-11-22T17:13:55.124Z,2.67
2022-11-22T17:17:18.478Z,2.67
2022-11-22T17:20:40.261Z,2.61
2022-11-22T17:24:01.153Z,2.61
2022-11-22T17:27:20.666Z,2.55
2022-11-22T17:30:42.968Z,2.54
2022-11-22T17:34:15.417Z,2.51
2022-11-22T17:37:34.779Z,2.46
2022-11-22T17:40:59.769Z,2.40
2022-11-22T17:44:25.068Z,2.36
2022-11-22T17:48:03.257Z,2.37
2022-11-22T17:51:23.897Z,2.33
2022-11-22T17:54:47.453Z,2.32
2022-11-22T17:58:13.008Z,2.30
2022-11-22T18:01:39.273Z,2.24
2022-11-22T18:05:03.872Z,2.23
2022-11-22T18:08:21.443Z,2.25
2022-11-22T18:11:42.654Z,2.20
2022-11-22T18:15:01.469Z,2.20
2022-11-22T18:18:48.498Z,2.19
2022-11-22T18:24:48.901Z,2.14
2022-11-22T18:28:11.958Z,2.12
2022-11-22T18:31:47.657Z,2.05
2022-11-22T18:34:50.721Z,2.00
2022-11-22T18:38:18.694Z,2.00
2022-11-22T18:41:41.307Z,1.90
2022-11-22T18:44:59.450Z,1.85
2022-11-22T18:48:17.597Z,1.84
2022-11-22T18:51:36.440Z,1.77
2022-11-22T18:54:55.527Z,1.70
2022-11-22T18:58:13.453Z,1.66
2022-11-22T19:01:32.942Z,1.63
2022-11-22T19:04:52.376Z,1.55
2022-11-22T19:08:10.306Z,1.41
2022-11-22T19:11:28.232Z,1.49
2022-11-22T19:14:45.943Z,1.50
2022-11-22T19:18:03.404Z,1.52
2022-11-22T19:21:23.011Z,1.56
2022-11-22T19:24:43.566Z,1.52
2022-11-22T19:28:05.176Z,1.47
2022-11-22T19:31:25.701Z,1.42
2022-11-22T19:34:43.870Z,1.41
2022-11-22T19:38:04.033Z,1.37
2022-11-22T19:41:25.870Z,1.33
2022-11-22T19:44:43.670Z,1.32
2022-11-22T19:47:59.483Z,1.28
2022-11-22T19:51:20.074Z,1.27
2022-11-22T19:54:38.067Z,1.27
2022-11-22T19:57:56.069Z,1.29
2022-11-22T20:01:19.160Z,1.28
2022-11-22T20:04:37.032Z,1.30
2022-11-22T20:07:55.016Z,1.27
2022-11-22T20:11:15.575Z,1.20
2022-11-22T20:14:32.913Z,1.07
2022-11-22T20:17:51.457Z,0.97
2022-11-22T20:21:24.054Z,0.78
2022-11-22T20:24:43.905Z,0.66
2022-11-22T20:28:02.927Z,0.60
2022-11-22T20:31:26.143Z,0.63
2022-11-22T20:34:59.457Z,0.60
2022-11-22T20:38:40.899Z,0.70
2022-11-22T20:42:32.500Z,0.82
2022-11-22T20:45:29.127Z,0.77
2022-11-22T20:48:55.343Z,0.55
2022-11-22T20:52:38.440Z,0.46
2022-11-22T20:55:57.426Z,0.58
2022-11-22T20:59:20.402Z,0.70
2022-11-22T21:02:37.781Z,0.79
2022-11-22T21:06:01.198Z,0.86
2022-11-22T21:09:18.167Z,0.89
2022-11-22T21:12:38.260Z,0.89
2022-11-22T21:15:55.494Z,0.88
2022-11-22T21:19:13.140Z,0.89
2022-11-22T21:22:32.097Z,0.86
2022-11-22T21:25:54.262Z,0.91
2022-11-22T21:29:24.119Z,0.91
2022-11-22T21:32:42.614Z,0.88
2022-11-22T21:35:59.807Z,0.66
2022-11-22T21:39:16.436Z,0.45
2022-11-22T21:42:32.660Z,0.28
2022-11-22T21:45:49.777Z,0.28
2022-11-22T21:49:06.688Z,0.35
2022-11-22T21:52:29.055Z,0.41
2022-11-22T21:55:58.523Z,0.29
2022-11-22T21:59:21.600Z,0.24
2022-11-22T22:02:47.911Z,0.19
2022-11-22T22:06:07.627Z,0.25
2022-11-22T22:09:23.743Z,0.37
2022-11-22T22:12:40.375Z,0.41
2022-11-22T22:15:59.200Z,0.45
2022-11-22T22:19:17.761Z,0.52
2022-11-22T22:22:34.458Z,0.54
2022-11-22T22:25:51.023Z,0.55
2022-11-22T22:29:07.378Z,0.55
2022-11-22T22:32:23.673Z,0.55
2022-11-22T22:35:40.435Z,0.38
2022-11-22T22:38:57.322Z,0.37
2022-11-22T22:42:14.962Z,0.29
2022-11-22T22:45:32.421Z,0.23
2022-11-22T22:48:49.755Z,0.31
2022-11-22T22:52:06.463Z,0.37
2022-11-22T22:55:22.733Z,0.20
2022-11-22T22:58:39.085Z,0.10
2022-11-22T23:01:55.388Z,0.04
2022-11-22T23:05:12.783Z,0.03
2022-11-22T23:08:28.858Z,0.07
2022-11-22T23:12:00.243Z,0.05
2022-11-22T23:15:32.936Z,-0.15
2022-11-22T23:18:36.756Z,-0.09
2022-11-22T23:21:53.309Z,-0.05
2022-11-22T23:25:09.870Z,-0.03
2022-11-22T23:28:26.721Z,-0.11
2022-11-22T23:31:43.273Z,-0.04
2022-11-22T23:35:00.714Z,0.06
2022-11-22T23:38:18.659Z,0.13
2022-11-22T23:41:35.832Z,0.09
2022-11-22T23:44:52.155Z,0.03
2022-11-22T23:48:08.936Z,-0.11
2022-11-22T23:51:25.534Z,-0.10
2022-11-22T23:54:42.676Z,-0.02
2022-11-22T23:57:58.821Z,0.03
